sensor_id;sensor_type;location;lat;lon;timestamp;pressure;altitude;pressure_sealevel;temperature;humidity
47670;BME280;33408;52.062;11.722;2023-03-05T00:00:40;101268.78;;;2.83;89.67
47670;BME280;33408;52.062;11.722;2023-03-05T00:03:07;101263.84;;;2.91;89.11
47670;BME280;33408;52.062;11.722;2023-03-05T00:05:33;101257.00;;;2.90;89.14
47670;BME280;33408;52.062;11.722;2023-03-05T00:08:00;101262.16;;;2.91;89.50
47670;BME280;33408;52.062;11.722;2023-03-05T00:10:27;101254.31;;;2.84;89.27
47670;BME280;33408;52.062;11.722;2023-03-05T00:12:53;101255.09;;;2.81;89.44
47670;BME280;33408;52.062;11.722;2023-03-05T00:15:21;101260.25;;;2.83;89.32
47670;BME280;33408;52.062;11.722;2023-03-05T00:17:48;101252.44;;;2.77;89.31
47670;BME280;33408;52.062;11.722;2023-03-05T00:20:15;101251.78;;;2.85;89.61
47670;BME280;33408;52.062;11.722;2023-03-05T00:22:41;101250.72;;;2.76;89.97
47670;BME280;33408;52.062;11.722;2023-03-05T00:25:08;101243.22;;;2.85;90.10
47670;BME280;33408;52.062;11.722;2023-03-05T00:27:35;101245.75;;;2.83;91.00
47670;BME280;33408;52.062;11.722;2023-03-05T00:30:01;101242.31;;;2.83;91.44
47670;BME280;33408;52.062;11.722;2023-03-05T00:32:29;101238.09;;;2.85;92.75
47670;BME280;33408;52.062;11.722;2023-03-05T00:34:56;101235.44;;;2.79;93.50
47670;BME280;33408;52.062;11.722;2023-03-05T00:37:22;101236.28;;;2.79;93.50
47670;BME280;33408;52.062;11.722;2023-03-05T00:39:49;101230.25;;;2.76;94.15
47670;BME280;33408;52.062;11.722;2023-03-05T00:42:16;101231.13;;;2.78;95.40
47670;BME280;33408;52.062;11.722;2023-03-05T00:44:42;101235.31;;;2.74;96.01
47670;BME280;33408;52.062;11.722;2023-03-05T00:47:09;101226.84;;;2.78;97.36
47670;BME280;33408;52.062;11.722;2023-03-05T00:49:37;101225.84;;;2.70;97.66
47670;BME280;33408;52.062;11.722;2023-03-05T00:52:04;101227.44;;;2.65;98.83
47670;BME280;33408;52.062;11.722;2023-03-05T00:54:30;101230.94;;;2.70;99.55
47670;BME280;33408;52.062;11.722;2023-03-05T00:56:57;101222.28;;;2.63;100.00
47670;BME280;33408;52.062;11.722;2023-03-05T00:59:23;101220.75;;;2.71;100.00
47670;BME280;33408;52.062;11.722;2023-03-05T01:01:50;101215.44;;;2.64;100.00
47670;BME280;33408;52.062;11.722;2023-03-05T01:04:16;101213.81;;;2.66;100.00
47670;BME280;33408;52.062;11.722;2023-03-05T01:06:44;101211.16;;;2.61;100.00
47670;BME280;33408;52.062;11.722;2023-03-05T01:09:11;101214.59;;;2.63;100.00
47670;BME280;33408;52.062;11.722;2023-03-05T01:11:38;101199.13;;;2.59;100.00
47670;BME280;33408;52.062;11.722;2023-03-05T01:14:05;101204.09;;;2.51;100.00
47670;BME280;33408;52.062;11.722;2023-03-05T01:16:31;101207.47;;;2.48;100.00
47670;BME280;33408;52.062;11.722;2023-03-05T01:18:58;101204.91;;;2.48;100.00
47670;BME280;33408;52.062;11.722;2023-03-05T01:21:24;101206.59;;;2.49;100.00
47670;BME280;33408;52.062;11.722;2023-03-05T01:23:52;101200.66;;;2.50;100.00
47670;BME280;33408;52.062;11.722;2023-03-05T01:26:19;101208.38;;;2.52;100.00
47670;BME280;33408;52.062;11.722;2023-03-05T01:28:46;101203.06;;;2.43;100.00
47670;BME280;33408;52.062;11.722;2023-03-05T01:31:12;101206.34;;;2.37;100.00
47670;BME280;33408;52.062;11.722;2023-03-05T01:33:39;101202.31;;;2.47;100.00
47670;BME280;33408;52.062;11.722;2023-03-05T01:36:07;101199.41;;;2.33;100.00
47670;BME280;33408;52.062;11.722;2023-03-05T01:38:36;101204.53;;;2.33;100.00
47670;BME280;33408;52.062;11.722;2023-03-05T01:41:05;101195.09;;;2.29;100.00
47670;BME280;33408;52.062;11.722;2023-03-05T01:43:31;101195.66;;;2.17;100.00
47670;BME280;33408;52.062;11.722;2023-03-05T01:46:34;101195.00;;;1.89;100.00
47670;BME280;33408;52.062;11.722;2023-03-05T01:49:05;101193.97;;;1.82;100.00
47670;BME280;33408;52.062;11.722;2023-03-05T01:51:37;101194.88;;;1.85;100.00
47670;BME280;33408;52.062;11.722;2023-03-05T01:54:06;101190.56;;;1.82;100.00
47670;BME280;33408;52.062;11.722;2023-03-05T01:56:36;101195.69;;;1.82;100.00
47670;BME280;33408;52.062;11.722;2023-03-05T01:59:03;101183.72;;;1.81;100.00
47670;BME280;33408;52.062;11.722;2023-03-05T02:01:33;101186.31;;;1.82;100.00
47670;BME280;33408;52.062;11.722;2023-03-05T02:04:01;101179.53;;;1.85;100.00
47670;BME280;33408;52.062;11.722;2023-03-05T02:06:28;101170.06;;;1.80;100.00
47670;BME280;33408;52.062;11.722;2023-03-05T02:08:55;101172.63;;;1.80;100.00
47670;BME280;33408;52.062;11.722;2023-03-05T02:11:22;101168.38;;;1.81;100.00
47670;BME280;33408;52.062;11.722;2023-03-05T02:13:50;101159.13;;;1.86;100.00
47670;BME280;33408;52.062;11.722;2023-03-05T02:16:17;101157.56;;;1.93;100.00
47670;BME280;33408;52.062;11.722;2023-03-05T02:18:43;101145.53;;;1.87;100.00
47670;BME280;33408;52.062;11.722;2023-03-05T02:21:11;101152.56;;;1.97;100.00
47670;BME280;33408;52.062;11.722;2023-03-05T02:23:38;101147.41;;;1.96;100.00
47670;BME280;33408;52.062;11.722;2023-03-05T02:26:07;101142.22;;;1.93;100.00
47670;BME280;33408;52.062;11.722;2023-03-05T02:28:37;101138.84;;;1.94;100.00
47670;BME280;33408;52.062;11.722;2023-03-05T02:31:09;101144.00;;;1.95;100.00
47670;BME280;33408;52.062;11.722;2023-03-05T02:33:36;101127.84;;;1.98;100.00
47670;BME280;33408;52.062;11.722;2023-03-05T02:36:03;101133.75;;;1.94;100.00
47670;BME280;33408;52.062;11.722;2023-03-05T02:38:31;101137.25;;;1.99;100.00
47670;BME280;33408;52.062;11.722;2023-03-05T02:40:58;101121.88;;;1.97;100.00
47670;BME280;33408;52.062;11.722;2023-03-05T02:43:24;101126.13;;;1.95;100.00
47670;BME280;33408;52.062;11.722;2023-03-05T02:45:51;101127.69;;;1.90;100.00
47670;BME280;33408;52.062;11.722;2023-03-05T02:48:18;101120.09;;;1.93;100.00
47670;BME280;33408;52.062;11.722;2023-03-05T02:50:45;101120.16;;;1.95;100.00
47670;BME280;33408;52.062;11.722;2023-03-05T02:53:12;101119.16;;;1.90;100.00
47670;BME280;33408;52.062;11.722;2023-03-05T02:55:40;101120.22;;;1.99;100.00
47670;BME280;33408;52.062;11.722;2023-03-05T02:58:07;101121.19;;;2.03;100.00
47670;BME280;33408;52.062;11.722;2023-03-05T03:00:33;101105.69;;;1.97;100.00
47670;BME280;33408;52.062;11.722;2023-03-05T03:03:00;101107.44;;;1.99;100.00
47670;BME280;33408;52.062;11.722;2023-03-05T03:05:26;101110.72;;;1.94;100.00
47670;BME280;33408;52.062;11.722;2023-03-05T03:07:53;101109.16;;;1.99;100.00
47670;BME280;33408;52.062;11.722;2023-03-05T03:10:19;101107.44;;;1.99;100.00
47670;BME280;33408;52.062;11.722;2023-03-05T03:12:47;101106.66;;;2.02;100.00
47670;BME280;33408;52.062;11.722;2023-03-05T03:15:16;101102.31;;;1.99;100.00
47670;BME280;33408;52.062;11.722;2023-03-05T03:17:43;101096.34;;;1.99;100.00
47670;BME280;33408;52.062;11.722;2023-03-05T03:20:12;101096.25;;;1.94;100.00
47670;BME280;33408;52.062;11.722;2023-03-05T03:22:39;101098.00;;;1.95;100.00
47670;BME280;33408;52.062;11.722;2023-03-05T03:25:08;101098.09;;;2.00;100.00
47670;BME280;33408;52.062;11.722;2023-03-05T03:27:35;101096.22;;;1.93;100.00
47670;BME280;33408;52.062;11.722;2023-03-05T03:30:05;101089.53;;;1.99;100.00
47670;BME280;33408;52.062;11.722;2023-03-05T03:32:32;101094.75;;;2.04;100.00
47670;BME280;33408;52.062;11.722;2023-03-05T03:34:59;101097.13;;;1.96;100.00
47670;BME280;33408;52.062;11.722;2023-03-05T03:37:25;101094.50;;;1.92;100.00
47670;BME280;33408;52.062;11.722;2023-03-05T03:39:52;101093.69;;;1.94;100.00
47670;BME280;33408;52.062;11.722;2023-03-05T03:42:20;101091.81;;;1.86;100.00
47670;BME280;33408;52.062;11.722;2023-03-05T03:44:47;101091.72;;;1.82;100.00
47670;BME280;33408;52.062;11.722;2023-03-05T03:47:15;101089.19;;;1.82;100.00
47670;BME280;33408;52.062;11.722;2023-03-05T03:49:42;101091.84;;;1.87;100.00
47670;BME280;33408;52.062;11.722;2023-03-05T03:52:08;101085.13;;;1.92;100.00
47670;BME280;33408;52.062;11.722;2023-03-05T03:54:35;101080.88;;;1.93;100.00
47670;BME280;33408;52.062;11.722;2023-03-05T03:57:02;101081.06;;;2.00;100.00
47670;BME280;33408;52.062;11.722;2023-03-05T03:59:29;101078.47;;;1.99;100.00
47670;BME280;33408;52.062;11.722;2023-03-05T04:01:55;101072.53;;;2.00;100.00
47670;BME280;33408;52.062;11.722;2023-03-05T04:04:23;101063.09;;;1.97;100.00
47670;BME280;33408;52.062;11.722;2023-03-05T04:06:50;101067.59;;;2.08;100.00
47670;BME280;33408;52.062;11.722;2023-03-05T04:09:17;101053.78;;;2.01;100.00
47670;BME280;33408;52.062;11.722;2023-03-05T04:11:44;101058.38;;;2.16;100.00
47670;BME280;33408;52.062;11.722;2023-03-05T04:14:10;101054.84;;;2.11;100.00
47670;BME280;33408;52.062;11.722;2023-03-05T04:16:37;101050.72;;;2.16;100.00
47670;BME280;33408;52.062;11.722;2023-03-05T04:19:03;101050.94;;;2.28;100.00
47670;BME280;33408;52.062;11.722;2023-03-05T04:21:31;101051.66;;;2.21;100.00
47670;BME280;33408;52.062;11.722;2023-03-05T04:23:58;101047.47;;;2.25;100.00
47670;BME280;33408;52.062;11.722;2023-03-05T04:26:25;101044.94;;;2.26;100.00
47670;BME280;33408;52.062;11.722;2023-03-05T04:28:51;101042.25;;;2.20;100.00
47670;BME280;33408;52.062;11.722;2023-03-05T04:31:18;101038.94;;;2.24;100.00
47670;BME280;33408;52.062;11.722;2023-03-05T04:33:45;101039.72;;;2.22;100.00
47670;BME280;33408;52.062;11.722;2023-03-05T04:36:11;101041.41;;;2.19;100.00
47670;BME280;33408;52.062;11.722;2023-03-05T04:38:39;101035.41;;;2.17;100.00
47670;BME280;33408;52.062;11.722;2023-03-05T04:41:06;101032.75;;;2.13;100.00
47670;BME280;33408;52.062;11.722;2023-03-05T04:43:33;101026.00;;;2.16;100.00
47670;BME280;33408;52.062;11.722;2023-03-05T04:45:59;101026.81;;;2.15;100.00
47670;BME280;33408;52.062;11.722;2023-03-05T04:48:26;101028.50;;;2.15;100.00
47670;BME280;33408;52.062;11.722;2023-03-05T04:50:52;101029.38;;;2.15;100.00
47670;BME280;33408;52.062;11.722;2023-03-05T04:53:19;101020.00;;;2.14;100.00
47670;BME280;33408;52.062;11.722;2023-03-05T04:55:51;101022.53;;;2.14;100.00
47670;BME280;33408;52.062;11.722;2023-03-05T04:58:18;101019.19;;;2.18;100.00
47670;BME280;33408;52.062;11.722;2023-03-05T05:00:44;101019.13;;;2.15;100.00
47670;BME280;33408;52.062;11.722;2023-03-05T05:03:11;101020.75;;;2.10;100.00
47670;BME280;33408;52.062;11.722;2023-03-05T05:05:37;101012.38;;;2.17;100.00
47670;BME280;33408;52.062;11.722;2023-03-05T05:08:04;101008.03;;;2.13;100.00
47670;BME280;33408;52.062;11.722;2023-03-05T05:10:34;101001.97;;;2.10;100.00
47670;BME280;33408;52.062;11.722;2023-03-05T05:13:04;101003.03;;;2.19;100.00
47670;BME280;33408;52.062;11.722;2023-03-05T05:15:30;101000.44;;;2.18;100.00
47670;BME280;33408;52.062;11.722;2023-03-05T05:17:57;101000.53;;;2.23;100.00
47670;BME280;33408;52.062;11.722;2023-03-05T05:20:24;100994.41;;;2.14;100.00
47670;BME280;33408;52.062;11.722;2023-03-05T05:22:50;100995.41;;;2.21;100.00
47670;BME280;33408;52.062;11.722;2023-03-05T05:25:17;101006.41;;;2.18;100.00
47670;BME280;33408;52.062;11.722;2023-03-05T05:27:44;101002.13;;;2.16;100.00
47670;BME280;33408;52.062;11.722;2023-03-05T05:30:12;100994.44;;;2.16;100.00
47670;BME280;33408;52.062;11.722;2023-03-05T05:32:39;100992.75;;;2.16;100.00
47670;BME280;33408;52.062;11.722;2023-03-05T05:35:06;101000.38;;;2.15;100.00
47670;BME280;33408;52.062;11.722;2023-03-05T05:37:33;100995.28;;;2.16;100.00
47670;BME280;33408;52.062;11.722;2023-03-05T05:39:59;100991.81;;;2.13;100.00
47670;BME280;33408;52.062;11.722;2023-03-05T05:42:26;100998.75;;;2.18;100.00
47670;BME280;33408;52.062;11.722;2023-03-05T05:44:53;100998.66;;;2.14;100.00
47670;BME280;33408;52.062;11.722;2023-03-05T05:47:21;101006.16;;;2.05;100.00
47670;BME280;33408;52.062;11.722;2023-03-05T05:49:48;101001.09;;;2.09;100.00
47670;BME280;33408;52.062;11.722;2023-03-05T05:52:15;100998.50;;;2.06;100.00
47670;BME280;33408;52.062;11.722;2023-03-05T05:54:42;101004.50;;;2.08;100.00
47670;BME280;33408;52.062;11.722;2023-03-05T05:57:08;101006.75;;;1.94;100.00
47670;BME280;33408;52.062;11.722;2023-03-05T05:59:35;101013.56;;;1.92;100.00
47670;BME280;33408;52.062;11.722;2023-03-05T06:02:02;101009.94;;;1.82;100.00
47670;BME280;33408;52.062;11.722;2023-03-05T06:04:30;101007.66;;;1.95;100.00
47670;BME280;33408;52.062;11.722;2023-03-05T06:06:57;101008.06;;;1.75;100.00
47670;BME280;33408;52.062;11.722;2023-03-05T06:09:24;101014.72;;;1.69;100.00
47670;BME280;33408;52.062;11.722;2023-03-05T06:11:50;101008.44;;;1.54;100.00
47670;BME280;33408;52.062;11.722;2023-03-05T06:14:17;101006.72;;;1.53;100.00
47670;BME280;33408;52.062;11.722;2023-03-05T06:16:44;101010.63;;;1.37;100.00
47670;BME280;33408;52.062;11.722;2023-03-05T06:19:11;101016.13;;;1.18;100.00
47670;BME280;33408;52.062;11.722;2023-03-05T06:21:39;101009.38;;;1.21;100.00
47670;BME280;33408;52.062;11.722;2023-03-05T06:24:07;101003.44;;;1.21;100.00
47670;BME280;33408;52.062;11.722;2023-03-05T06:26:34;101002.81;;;1.31;100.00
47670;BME280;33408;52.062;11.722;2023-03-05T06:29:01;100999.59;;;1.40;100.00
47670;BME280;33408;52.062;11.722;2023-03-05T06:31:28;101006.72;;;1.53;100.00
47670;BME280;33408;52.062;11.722;2023-03-05T06:33:56;101003.50;;;1.62;100.00
47670;BME280;33408;52.062;11.722;2023-03-05T06:36:26;101008.88;;;1.73;100.00
47670;BME280;33408;52.062;11.722;2023-03-05T06:38:54;101007.34;;;1.81;100.00
47670;BME280;33408;52.062;11.722;2023-03-05T06:41:23;101004.88;;;1.86;100.00
47670;BME280;33408;52.062;11.722;2023-03-05T06:43:51;101010.91;;;1.89;100.00
47670;BME280;33408;52.062;11.722;2023-03-05T06:46:19;100999.94;;;1.93;100.00
47670;BME280;33408;52.062;11.722;2023-03-05T06:48:46;101005.00;;;1.90;100.00
47670;BME280;33408;52.062;11.722;2023-03-05T06:51:14;101006.75;;;1.94;100.00
47670;BME280;33408;52.062;11.722;2023-03-05T06:53:41;101006.06;;;2.00;100.00
47670;BME280;33408;52.062;11.722;2023-03-05T06:56:18;101003.81;;;2.17;100.00
47670;BME280;33408;52.062;11.722;2023-03-05T06:58:47;100997.03;;;2.17;100.00
47670;BME280;33408;52.062;11.722;2023-03-05T07:01:14;100999.78;;;2.28;100.00
47670;BME280;33408;52.062;11.722;2023-03-05T07:03:41;100996.63;;;2.40;100.00
47670;BME280;33408;52.062;11.722;2023-03-05T07:06:10;100986.94;;;2.25;100.00
47670;BME280;33408;52.062;11.722;2023-03-05T07:08:37;100991.25;;;2.28;100.00
47670;BME280;33408;52.062;11.722;2023-03-05T07:11:09;100999.94;;;2.36;100.00
47670;BME280;33408;52.062;11.722;2023-03-05T07:13:36;100995.81;;;2.43;100.00
47670;BME280;33408;52.062;11.722;2023-03-05T07:16:04;101002.72;;;2.47;100.00
47670;BME280;33408;52.062;11.722;2023-03-05T07:18:31;100998.28;;;2.40;100.00
47670;BME280;33408;52.062;11.722;2023-03-05T07:21:01;100995.91;;;2.49;100.00
47670;BME280;33408;52.062;11.722;2023-03-05T07:23:27;101000.34;;;2.56;100.00
47670;BME280;33408;52.062;11.722;2023-03-05T07:25:54;100992.75;;;2.62;100.00
47670;BME280;33408;52.062;11.722;2023-03-05T07:28:22;101002.16;;;2.63;100.00
47670;BME280;33408;52.062;11.722;2023-03-05T07:30:54;100998.31;;;2.87;100.00
47670;BME280;33408;52.062;11.722;2023-03-05T07:33:21;100992.41;;;2.91;100.00
47670;BME280;33408;52.062;11.722;2023-03-05T07:35:48;100993.34;;;2.96;100.00
47670;BME280;33408;52.062;11.722;2023-03-05T07:38:19;100984.81;;;2.96;100.00
47670;BME280;33408;52.062;11.722;2023-03-05T07:40:46;100981.38;;;2.94;100.00
47670;BME280;33408;52.062;11.722;2023-03-05T07:43:13;100978.94;;;3.01;100.00
47670;BME280;33408;52.062;11.722;2023-03-05T07:45:42;100982.25;;;2.97;100.00
47670;BME280;33408;52.062;11.722;2023-03-05T07:48:12;100981.44;;;2.98;100.00
47670;BME280;33408;52.062;11.722;2023-03-05T07:50:39;100978.50;;;2.77;100.00
47670;BME280;33408;52.062;11.722;2023-03-05T07:53:06;100980.84;;;2.63;100.00
47670;BME280;33408;52.062;11.722;2023-03-05T07:55:33;100984.19;;;2.60;100.00
47670;BME280;33408;52.062;11.722;2023-03-05T07:57:59;100979.94;;;2.62;100.00
47670;BME280;33408;52.062;11.722;2023-03-05T08:00:26;100976.44;;;2.57;100.00
47670;BME280;33408;52.062;11.722;2023-03-05T08:02:55;100982.38;;;2.53;100.00
47670;BME280;33408;52.062;11.722;2023-03-05T08:05:21;100985.00;;;2.59;100.00
47670;BME280;33408;52.062;11.722;2023-03-05T08:07:48;100980.78;;;2.60;100.00
47670;BME280;33408;52.062;11.722;2023-03-05T08:10:15;100988.22;;;2.47;100.00
47670;BME280;33408;52.062;11.722;2023-03-05T08:12:41;100979.97;;;2.64;100.00
47670;BME280;33408;52.062;11.722;2023-03-05T08:15:09;100989.03;;;2.46;100.00
47670;BME280;33408;52.062;11.722;2023-03-05T08:17:36;100980.59;;;2.50;100.00
47670;BME280;33408;52.062;11.722;2023-03-05T08:20:05;100972.44;;;2.71;100.00
47670;BME280;33408;52.062;11.722;2023-03-05T08:22:35;100974.75;;;2.58;100.00
47670;BME280;33408;52.062;11.722;2023-03-05T08:25:03;100974.47;;;2.42;100.00
47670;BME280;33408;52.062;11.722;2023-03-05T08:27:30;100977.78;;;2.38;100.00
47670;BME280;33408;52.062;11.722;2023-03-05T08:29:57;100976.91;;;2.36;100.00
47670;BME280;33408;52.062;11.722;2023-03-05T08:32:23;100977.34;;;2.59;100.00
47670;BME280;33408;52.062;11.722;2023-03-05T08:34:50;100972.25;;;2.61;100.00
47670;BME280;33408;52.062;11.722;2023-03-05T08:37:22;100977.03;;;2.42;100.00
47670;BME280;33408;52.062;11.722;2023-03-05T08:39:49;100974.25;;;2.31;100.00
47670;BME280;33408;52.062;11.722;2023-03-05T08:42:16;100969.94;;;2.27;100.00
47670;BME280;33408;52.062;11.722;2023-03-05T08:44:42;100971.75;;;2.33;100.00
47670;BME280;33408;52.062;11.722;2023-03-05T08:47:09;100969.34;;;2.41;100.00
47670;BME280;33408;52.062;11.722;2023-03-05T08:49:36;100966.81;;;2.42;100.00
47670;BME280;33408;52.062;11.722;2023-03-05T08:52:02;100962.56;;;2.44;100.00
47670;BME280;33408;52.062;11.722;2023-03-05T08:54:32;100960.31;;;2.60;100.00
47670;BME280;33408;52.062;11.722;2023-03-05T08:56:59;100957.81;;;2.63;100.00
47670;BME280;33408;52.062;11.722;2023-03-05T08:59:26;100947.72;;;2.73;100.00
47670;BME280;33408;52.062;11.722;2023-03-05T09:01:58;100945.25;;;2.78;100.00
47670;BME280;33408;52.062;11.722;2023-03-05T09:04:25;100954.09;;;2.97;100.00
47670;BME280;33408;52.062;11.722;2023-03-05T09:06:51;100949.00;;;2.99;100.00
47670;BME280;33408;52.062;11.722;2023-03-05T09:09:18;100942.28;;;3.05;100.00
47670;BME280;33408;52.062;11.722;2023-03-05T09:11:47;100936.50;;;3.17;100.00
47670;BME280;33408;52.062;11.722;2023-03-05T09:14:21;100933.34;;;3.35;100.00
47670;BME280;33408;52.062;11.722;2023-03-05T09:16:47;100935.03;;;3.35;100.00
47670;BME280;33408;52.062;11.722;2023-03-05T09:19:14;100935.75;;;3.24;100.00
47670;BME280;33408;52.062;11.722;2023-03-05T09:21:41;100928.34;;;3.46;100.00
47670;BME280;33408;52.062;11.722;2023-03-05T09:24:07;100915.66;;;3.55;100.00
47670;BME280;33408;52.062;11.722;2023-03-05T09:26:35;100909.19;;;3.83;100.00
47670;BME280;33408;52.062;11.722;2023-03-05T09:29:03;100903.31;;;3.92;100.00
47670;BME280;33408;52.062;11.722;2023-03-05T09:31:31;100899.28;;;4.14;100.00
47670;BME280;33408;52.062;11.722;2023-03-05T09:33:58;100884.63;;;4.06;100.00
47670;BME280;33408;52.062;11.722;2023-03-05T09:36:27;100898.31;;;4.05;100.00
47670;BME280;33408;52.062;11.722;2023-03-05T09:38:58;100890.44;;;3.89;100.00
47670;BME280;33408;52.062;11.722;2023-03-05T09:41:31;100886.78;;;3.69;100.00
47670;BME280;33408;52.062;11.722;2023-03-05T09:44:10;100892.59;;;3.55;100.00
47670;BME280;33408;52.062;11.722;2023-03-05T09:46:50;100906.09;;;2.84;100.00
47670;BME280;33408;52.062;11.722;2023-03-05T09:49:20;100912.59;;;2.63;100.00
47670;BME280;33408;52.062;11.722;2023-03-05T09:51:53;100910.94;;;2.67;100.00
47670;BME280;33408;52.062;11.722;2023-03-05T09:54:24;100911.63;;;2.57;100.00
47670;BME280;33408;52.062;11.722;2023-03-05T09:56:55;100918.94;;;2.36;100.00
47670;BME280;33408;52.062;11.722;2023-03-05T09:59:30;100917.78;;;2.19;100.00
47670;BME280;33408;52.062;11.722;2023-03-05T10:02:02;100911.84;;;2.22;100.00
47670;BME280;33408;52.062;11.722;2023-03-05T10:04:40;100912.53;;;2.13;100.00
47670;BME280;33408;52.062;11.722;2023-03-05T10:07:12;100910.56;;;2.45;100.00
47670;BME280;33408;52.062;11.722;2023-03-05T10:09:44;100911.22;;;2.35;100.00
47670;BME280;33408;52.062;11.722;2023-03-05T10:12:20;100911.03;;;2.23;100.00
47670;BME280;33408;52.062;11.722;2023-03-05T10:14:53;100909.22;;;2.18;100.00
47670;BME280;33408;52.062;11.722;2023-03-05T10:17:35;100905.84;;;2.19;100.00
47670;BME280;33408;52.062;11.722;2023-03-05T10:20:33;100911.06;;;2.26;100.00
47670;BME280;33408;52.062;11.722;2023-03-05T10:23:24;100902.88;;;1.99;100.00
47670;BME280;33408;52.062;11.722;2023-03-05T10:26:01;100893.91;;;1.74;100.00
47670;BME280;33408;52.062;11.722;2023-03-05T10:28:34;100895.53;;;1.71;100.00
47670;BME280;33408;52.062;11.722;2023-03-05T10:31:18;100885.38;;;1.75;100.00
47670;BME280;33408;52.062;11.722;2023-03-05T10:33:58;100889.91;;;1.87;100.00
47670;BME280;33408;52.062;11.722;2023-03-05T10:36:36;100900.06;;;2.30;100.00
47670;BME280;33408;52.062;11.722;2023-03-05T10:39:39;100895.66;;;2.21;100.00
47670;BME280;33408;52.062;11.722;2023-03-05T10:42:17;100895.38;;;2.07;100.00
47670;BME280;33408;52.062;11.722;2023-03-05T10:44:49;100892.97;;;1.72;100.00
47670;BME280;33408;52.062;11.722;2023-03-05T10:47:23;100881.78;;;1.66;100.00
47670;BME280;33408;52.062;11.722;2023-03-05T10:49:52;100889.06;;;1.47;100.00
47670;BME280;33408;52.062;11.722;2023-03-05T10:52:21;100879.88;;;1.99;100.00
47670;BME280;33408;52.062;11.722;2023-03-05T10:54:50;100880.09;;;2.10;100.00
47670;BME280;33408;52.062;11.722;2023-03-05T10:57:19;100876.19;;;2.29;100.00
47670;BME280;33408;52.062;11.722;2023-03-05T10:59:49;100880.13;;;2.62;100.00
47670;BME280;33408;52.062;11.722;2023-03-05T11:02:17;100881.97;;;2.69;100.00
47670;BME280;33408;52.062;11.722;2023-03-05T11:04:46;100868.25;;;2.64;100.00
47670;BME280;33408;52.062;11.722;2023-03-05T11:07:30;100863.09;;;3.19;100.00
47670;BME280;33408;52.062;11.722;2023-03-05T11:10:06;100855.09;;;2.99;100.00
47670;BME280;33408;52.062;11.722;2023-03-05T11:12:38;100866.13;;;2.94;100.00
47670;BME280;33408;52.062;11.722;2023-03-05T11:15:22;100858.75;;;3.15;100.00
47670;BME280;33408;52.062;11.722;2023-03-05T11:18:05;100846.94;;;3.26;100.00
47670;BME280;33408;52.062;11.722;2023-03-05T11:20:34;100844.84;;;2.98;100.00
47670;BME280;33408;52.062;11.722;2023-03-05T11:23:03;100846.31;;;2.82;100.00
47670;BME280;33408;52.062;11.722;2023-03-05T11:25:30;100838.00;;;2.97;100.00
47670;BME280;33408;52.062;11.722;2023-03-05T11:28:01;100837.25;;;3.04;100.00
47670;BME280;33408;52.062;11.722;2023-03-05T11:30:31;100834.47;;;2.88;100.00
47670;BME280;33408;52.062;11.722;2023-03-05T11:33:08;100834.47;;;2.88;100.00
47670;BME280;33408;52.062;11.722;2023-03-05T11:35:39;100831.75;;;2.78;100.00
47670;BME280;33408;52.062;11.722;2023-03-05T11:38:15;100828.03;;;3.17;100.00
47670;BME280;33408;52.062;11.722;2023-03-05T11:40:41;100827.00;;;3.04;100.00
47670;BME280;33408;52.062;11.722;2023-03-05T11:43:14;100818.44;;;3.02;100.00
47670;BME280;33408;52.062;11.722;2023-03-05T11:45:42;100822.78;;;3.09;100.00
47670;BME280;33408;52.062;11.722;2023-03-05T11:48:15;100818.63;;;3.14;100.00
47670;BME280;33408;52.062;11.722;2023-03-05T11:50:48;100816.41;;;3.42;100.00
47670;BME280;33408;52.062;11.722;2023-03-05T11:53:19;100816.81;;;3.77;100.00
47670;BME280;33408;52.062;11.722;2023-03-05T11:55:49;100804.88;;;3.82;100.00
47670;BME280;33408;52.062;11.722;2023-03-05T11:58:26;100803.22;;;3.86;100.00
47670;BME280;33408;52.062;11.722;2023-03-05T12:00:54;100802.31;;;3.81;100.00
47670;BME280;33408;52.062;11.722;2023-03-05T12:03:24;100800.28;;;3.52;100.00
47670;BME280;33408;52.062;11.722;2023-03-05T12:05:57;100785.84;;;3.60;100.00
47670;BME280;33408;52.062;11.722;2023-03-05T12:08:29;100779.09;;;3.69;100.00
47670;BME280;33408;52.062;11.722;2023-03-05T12:10:58;100787.34;;;6.21;100.00
47670;BME280;33408;52.062;11.722;2023-03-05T12:13:32;100774.47;;;6.52;100.00
47670;BME280;33408;52.062;11.722;2023-03-05T12:16:15;100765.19;;;4.37;100.00
47670;BME280;33408;52.062;11.722;2023-03-05T12:18:53;100766.78;;;4.23;100.00
47670;BME280;33408;52.062;11.722;2023-03-05T12:21:29;100757.25;;;4.06;100.00
47670;BME280;33408;52.062;11.722;2023-03-05T12:23:59;100750.59;;;4.27;100.00
47670;BME280;33408;52.062;11.722;2023-03-05T12:26:54;100748.81;;;4.23;100.00
47670;BME280;33408;52.062;11.722;2023-03-05T12:29:27;100737.81;;;4.37;100.00
47670;BME280;33408;52.062;11.722;2023-03-05T12:31:54;100730.97;;;4.41;100.00
47670;BME280;33408;52.062;11.722;2023-03-05T12:34:46;100728.44;;;4.44;100.00
47670;BME280;33408;52.062;11.722;2023-03-05T12:40:23;100718.31;;;4.67;100.00
47670;BME280;33408;52.062;11.722;2023-03-05T12:42:55;100715.97;;;5.17;100.00
47670;BME280;33408;52.062;11.722;2023-03-05T12:45:39;100699.63;;;4.98;100.00
47670;BME280;33408;52.062;11.722;2023-03-05T12:48:41;100696.25;;;5.13;100.00
47670;BME280;33408;52.062;11.722;2023-03-05T12:51:34;100691.13;;;5.13;100.00
47670;BME280;33408;52.062;11.722;2023-03-05T12:54:29;100687.59;;;4.90;100.00